createdAt,value
2019-02-26T00:02:19.771Z,10.55
2019-02-26T00:04:52.128Z,10.75
2019-02-26T00:07:25.726Z,10.97
2019-02-26T00:09:59.464Z,10.27
2019-02-26T00:12:33.187Z,10.50
2019-02-26T00:15:04.000Z,10.93
2019-02-26T00:17:38.537Z,10.63
2019-02-26T00:20:10.922Z,10.60
2019-02-26T00:22:43.617Z,10.77
2019-02-26T00:25:17.840Z,10.80
2019-02-26T00:27:49.479Z,10.90
2019-02-26T00:30:21.962Z,11.30
2019-02-26T00:32:55.474Z,12.07
2019-02-26T00:35:27.709Z,10.83
2019-02-26T00:37:59.435Z,10.75
2019-02-26T00:40:32.659Z,11.43
2019-02-26T00:43:06.574Z,10.63
2019-02-26T00:45:39.058Z,11.07
2019-02-26T00:48:10.903Z,11.03
2019-02-26T00:50:42.604Z,11.10
2019-02-26T00:53:17.106Z,11.07
2019-02-26T00:55:47.010Z,10.63
2019-02-26T00:58:18.331Z,11.23
2019-02-26T01:00:50.005Z,10.50
2019-02-26T01:03:21.637Z,11.40
2019-02-26T01:05:53.006Z,10.80
2019-02-26T01:08:24.345Z,10.35
2019-02-26T01:10:57.060Z,10.88
2019-02-26T01:13:30.080Z,10.43
2019-02-26T01:16:02.396Z,11.30
2019-02-26T01:18:34.387Z,10.87
2019-02-26T01:21:05.972Z,10.83
2019-02-26T01:23:37.264Z,10.10
2019-02-26T01:26:10.062Z,9.90
2019-02-26T01:28:44.139Z,10.43
2019-02-26T01:31:15.080Z,10.10
2019-02-26T01:33:48.534Z,10.52
2019-02-26T01:36:22.740Z,10.30
2019-02-26T01:38:53.610Z,10.30
2019-02-26T01:41:26.887Z,10.33
2019-02-26T01:43:58.033Z,10.72
2019-02-26T01:46:30.008Z,11.57
2019-02-26T01:49:04.362Z,11.37
2019-02-26T01:51:35.742Z,10.40
2019-02-26T01:54:08.072Z,10.40
2019-02-26T01:56:40.050Z,10.37
2019-02-26T01:59:11.346Z,10.73
2019-02-26T02:01:44.693Z,9.70
2019-02-26T02:04:17.132Z,10.13
2019-02-26T02:06:49.173Z,10.20
2019-02-26T02:09:22.582Z,10.20
2019-02-26T02:11:53.679Z,10.87
2019-02-26T02:14:25.665Z,11.05
2019-02-26T02:16:57.621Z,10.30
2019-02-26T02:19:30.080Z,10.63
2019-02-26T02:22:02.916Z,10.87
2019-02-26T02:24:39.019Z,10.65
2019-02-26T02:27:07.830Z,9.93
2019-02-26T02:36:03.985Z,10.67
2019-02-26T02:38:37.123Z,10.83
2019-02-26T02:41:08.488Z,11.33
2019-02-26T02:43:39.978Z,11.23
2019-02-26T02:46:11.510Z,11.43
2019-02-26T02:48:44.121Z,11.70
2019-02-26T02:51:15.913Z,11.60
2019-02-26T02:53:47.858Z,10.80
2019-02-26T02:56:20.125Z,11.43
2019-02-26T02:58:51.814Z,11.50
2019-02-26T03:01:25.836Z,10.90
2019-02-26T03:03:58.430Z,11.53
2019-02-26T03:06:32.602Z,11.03
2019-02-26T03:09:06.937Z,11.60
2019-02-26T03:11:41.360Z,12.00
2019-02-26T03:14:13.987Z,11.42
2019-02-26T03:16:47.941Z,11.93
2019-02-26T03:19:18.809Z,11.30
2019-02-26T03:21:52.436Z,11.03
2019-02-26T03:24:25.584Z,11.73
2019-02-26T03:26:56.038Z,11.13
2019-02-26T03:29:28.334Z,12.40
2019-02-26T03:31:59.954Z,11.93
2019-02-26T03:34:32.110Z,12.30
2019-02-26T03:37:05.639Z,10.77
2019-02-26T03:39:36.377Z,11.23
2019-02-26T03:42:10.481Z,10.75
2019-02-26T03:44:44.041Z,11.23
2019-02-26T03:47:16.304Z,11.33
2019-02-26T03:49:48.051Z,11.53
2019-02-26T03:52:19.422Z,11.83
2019-02-26T03:54:50.973Z,12.73
2019-02-26T03:57:24.674Z,11.97
2019-02-26T03:59:55.307Z,11.07
2019-02-26T04:02:26.775Z,11.77
2019-02-26T04:05:00.776Z,12.57
2019-02-26T04:07:33.341Z,11.80
2019-02-26T04:10:05.503Z,11.33
2019-02-26T04:12:41.889Z,11.43
2019-02-26T04:15:12.736Z,12.33
2019-02-26T04:17:44.718Z,12.33
2019-02-26T04:20:17.884Z,11.90
2019-02-26T04:22:49.886Z,11.53
2019-02-26T04:26:08.138Z,12.40
2019-02-26T04:29:38.018Z,12.20
2019-02-26T04:33:19.698Z,10.27
2019-02-26T04:36:34.795Z,12.18
2019-02-26T04:40:14.161Z,12.97
2019-02-26T04:43:27.920Z,12.23
2019-02-26T04:47:05.897Z,12.00
2019-02-26T04:49:40.211Z,12.00
2019-02-26T04:52:14.043Z,14.27
2019-02-26T04:54:44.035Z,12.40
2019-02-26T04:57:15.299Z,12.93
2019-02-26T04:59:46.909Z,12.28
2019-02-26T05:02:18.141Z,11.80
2019-02-26T05:04:49.507Z,12.23
2019-02-26T05:07:20.734Z,12.27
2019-02-26T05:09:53.843Z,12.53
2019-02-26T05:12:30.311Z,13.50
2019-02-26T05:14:59.989Z,12.28
2019-02-26T05:17:33.300Z,12.23
2019-02-26T05:20:06.260Z,12.70
2019-02-26T05:22:37.336Z,12.60
2019-02-26T05:25:13.385Z,12.57
2019-02-26T05:27:44.753Z,12.90
2019-02-26T05:30:17.250Z,13.20
2019-02-26T05:32:50.839Z,13.77
2019-02-26T05:35:23.263Z,13.87
2019-02-26T05:37:56.219Z,12.97
2019-02-26T05:40:27.981Z,15.70
2019-02-26T05:43:01.258Z,14.33
2019-02-26T05:45:35.466Z,12.25
2019-02-26T05:48:05.244Z,12.30
2019-02-26T05:50:38.658Z,13.23
2019-02-26T05:53:12.732Z,12.77
2019-02-26T05:55:47.060Z,14.67
2019-02-26T05:58:19.289Z,16.33
2019-02-26T06:00:50.307Z,13.57
2019-02-26T06:03:21.866Z,13.20
2019-02-26T06:05:55.624Z,13.13
2019-02-26T06:08:29.513Z,13.07
2019-02-26T06:10:59.487Z,13.40
2019-02-26T06:13:34.451Z,13.60
2019-02-26T06:16:07.282Z,13.53
2019-02-26T06:18:41.973Z,14.20
2019-02-26T06:21:16.493Z,14.57
2019-02-26T06:23:55.305Z,13.67
2019-02-26T06:26:30.311Z,13.23
2019-02-26T06:29:00.568Z,14.87
2019-02-26T06:31:31.836Z,14.43
2019-02-26T06:34:06.440Z,14.47
2019-02-26T06:36:38.123Z,13.87
2019-02-26T06:39:09.920Z,15.03
2019-02-26T06:41:41.915Z,14.00
2019-02-26T06:44:14.275Z,13.72
2019-02-26T06:46:45.860Z,14.43
2019-02-26T06:49:20.098Z,14.80
2019-02-26T06:51:52.183Z,14.13
2019-02-26T06:54:28.939Z,15.23
2019-02-26T06:56:59.835Z,15.10
2019-02-26T06:59:34.394Z,14.60
2019-02-26T07:02:05.185Z,14.90
2019-02-26T07:04:36.834Z,14.80
2019-02-26T07:07:12.226Z,15.80
2019-02-26T07:09:43.772Z,14.73
2019-02-26T07:12:16.883Z,15.15
2019-02-26T07:14:49.134Z,15.40
2019-02-26T07:17:21.374Z,15.10
2019-02-26T07:19:53.866Z,14.57
2019-02-26T07:22:26.575Z,14.37
2019-02-26T07:24:58.137Z,16.43
2019-02-26T07:27:31.541Z,15.57
2019-02-26T07:30:03.045Z,15.63
2019-02-26T07:32:35.914Z,14.70
2019-02-26T07:35:11.057Z,14.67
2019-02-26T07:37:42.353Z,16.33
2019-02-26T07:40:16.117Z,15.50
2019-02-26T07:42:49.215Z,15.67
2019-02-26T07:45:22.924Z,14.83
2019-02-26T07:47:55.985Z,14.93
2019-02-26T07:50:31.404Z,15.73
2019-02-26T07:53:00.814Z,14.97
2019-02-26T07:55:32.715Z,14.63
2019-02-26T07:58:06.305Z,14.67
2019-02-26T08:00:47.150Z,14.87
2019-02-26T08:03:19.178Z,15.50
2019-02-26T08:05:50.868Z,14.70
2019-02-26T08:08:22.129Z,15.93
2019-02-26T08:10:53.436Z,15.48
2019-02-26T08:13:26.880Z,16.17
2019-02-26T08:16:00.018Z,15.55
2019-02-26T08:18:31.554Z,15.67
2019-02-26T08:21:04.893Z,15.43
2019-02-26T08:23:36.747Z,15.27
2019-02-26T08:26:08.647Z,15.77
2019-02-26T08:28:41.927Z,15.48
2019-02-26T08:31:15.495Z,16.43
2019-02-26T08:33:48.954Z,15.87
2019-02-26T08:36:19.525Z,16.00
2019-02-26T08:38:52.040Z,16.30
2019-02-26T08:41:23.719Z,16.57
2019-02-26T08:43:58.704Z,17.00
2019-02-26T08:46:30.221Z,16.42
2019-02-26T08:49:08.249Z,16.90
2019-02-26T08:51:35.487Z,16.10
2019-02-26T08:54:07.149Z,16.90
2019-02-26T08:56:38.733Z,17.53
2019-02-26T08:59:11.519Z,17.30
2019-02-26T09:01:43.060Z,17.37
2019-02-26T09:04:16.822Z,17.80
2019-02-26T09:06:47.599Z,17.87
2019-02-26T09:09:20.995Z,18.17
2019-02-26T09:11:53.345Z,17.00
2019-02-26T09:14:26.176Z,17.70
2019-02-26T09:16:59.710Z,18.00
2019-02-26T09:19:32.884Z,17.63
2019-02-26T09:22:03.911Z,18.93
2019-02-26T09:24:35.525Z,17.77
2019-02-26T09:27:06.810Z,18.33
2019-02-26T09:29:39.809Z,18.00
2019-02-26T09:32:12.075Z,17.73
2019-02-26T09:34:45.161Z,18.73
2019-02-26T09:37:16.420Z,18.60
2019-02-26T09:39:48.017Z,18.20
2019-02-26T09:42:21.069Z,18.57
2019-02-26T09:44:55.345Z,18.13
2019-02-26T09:47:31.549Z,17.32
2019-02-26T09:50:02.817Z,18.60
2019-02-26T09:52:34.708Z,18.13
2019-02-26T09:55:07.580Z,18.00
2019-02-26T09:57:39.174Z,18.37
2019-02-26T10:00:22.091Z,17.60
2019-02-26T10:02:52.074Z,17.60
2019-02-26T10:05:23.899Z,18.12
2019-02-26T10:07:59.307Z,18.75
2019-02-26T10:10:31.195Z,17.93
2019-02-26T10:13:04.560Z,17.23
2019-02-26T10:15:37.312Z,17.37
2019-02-26T10:18:09.297Z,17.70
2019-02-26T10:20:44.101Z,18.23
2019-02-26T10:23:14.525Z,17.37
2019-02-26T10:25:45.873Z,17.07
2019-02-26T10:28:19.006Z,16.73
2019-02-26T10:30:50.169Z,16.10
2019-02-26T10:33:21.670Z,14.98
2019-02-26T10:35:53.609Z,16.87
2019-02-26T10:38:29.615Z,16.60
2019-02-26T10:41:01.668Z,15.20
2019-02-26T10:43:32.328Z,16.27
2019-02-26T10:46:03.730Z,16.33
2019-02-26T10:48:36.307Z,16.57
2019-02-26T10:51:08.124Z,16.17
2019-02-26T10:53:39.379Z,15.67
2019-02-26T10:56:11.857Z,15.48
2019-02-26T10:58:43.423Z,15.87
2019-02-26T11:01:17.666Z,15.37
2019-02-26T11:03:49.463Z,16.37
2019-02-26T11:06:22.084Z,14.97
2019-02-26T11:08:55.755Z,15.97
2019-02-26T11:11:29.996Z,14.97
2019-02-26T11:14:01.217Z,14.80
2019-02-26T11:16:33.094Z,13.63
2019-02-26T11:19:07.543Z,13.93
2019-02-26T11:21:39.342Z,13.30
2019-02-26T11:24:11.295Z,14.13
2019-02-26T11:26:43.890Z,13.60
2019-02-26T11:29:15.627Z,13.60
2019-02-26T11:31:49.574Z,14.17
2019-02-26T11:34:20.899Z,13.60
2019-02-26T11:36:54.169Z,13.00
2019-02-26T11:39:25.687Z,13.47
2019-02-26T11:41:59.507Z,14.43
2019-02-26T11:44:31.761Z,13.45
2019-02-26T11:47:02.990Z,13.43
2019-02-26T11:49:37.009Z,13.10
2019-02-26T11:52:08.059Z,13.93
2019-02-26T11:54:40.264Z,13.50
2019-02-26T11:57:13.407Z,13.68
2019-02-26T11:59:46.094Z,13.22
2019-02-26T12:02:25.217Z,13.30
2019-02-26T12:04:51.550Z,12.30
2019-02-26T12:07:24.715Z,11.67
2019-02-26T12:09:57.955Z,11.13
2019-02-26T12:12:31.163Z,12.30
2019-02-26T12:15:04.345Z,11.37
2019-02-26T12:17:37.786Z,12.43
2019-02-26T12:20:14.632Z,12.13
2019-02-26T12:22:47.939Z,12.80
2019-02-26T12:25:18.485Z,12.37
2019-02-26T12:27:49.800Z,12.27
2019-02-26T12:30:21.958Z,12.70
2019-02-26T12:32:55.117Z,13.03
2019-02-26T12:35:26.259Z,14.23
2019-02-26T12:37:59.337Z,13.90
2019-02-26T12:40:31.223Z,14.03
2019-02-26T12:43:05.499Z,14.33
2019-02-26T12:45:38.654Z,15.33
2019-02-26T12:48:12.579Z,16.03
2019-02-26T12:50:42.854Z,15.93
2019-02-26T12:53:17.237Z,15.08
2019-02-26T12:55:47.512Z,13.33
2019-02-26T12:58:23.697Z,12.37
2019-02-26T13:00:54.122Z,12.63
2019-02-26T13:03:25.449Z,13.97
2019-02-26T13:05:56.749Z,13.40
2019-02-26T13:08:28.411Z,13.97
2019-02-26T13:10:59.682Z,15.03
2019-02-26T13:13:31.713Z,15.33
2019-02-26T13:16:04.258Z,15.17
2019-02-26T13:18:36.027Z,14.97
2019-02-26T13:21:11.035Z,14.33
2019-02-26T13:23:41.616Z,15.20
2019-02-26T13:26:15.327Z,14.63
2019-02-26T13:28:52.609Z,13.87
2019-02-26T13:31:22.491Z,14.60
2019-02-26T13:33:53.832Z,14.73
2019-02-26T13:36:25.637Z,14.83
2019-02-26T13:38:57.252Z,14.90
2019-02-26T13:41:30.262Z,14.57
2019-02-26T13:44:01.646Z,14.77
2019-02-26T13:46:32.924Z,14.57
2019-02-26T13:49:04.632Z,13.70
2019-02-26T13:51:36.176Z,14.03
2019-02-26T13:54:07.543Z,13.63
2019-02-26T13:56:39.145Z,14.37
2019-02-26T13:59:10.881Z,13.57
2019-02-26T14:01:42.241Z,13.03
2019-02-26T14:04:13.851Z,15.43
2019-02-26T14:06:45.538Z,13.60
2019-02-26T14:09:16.819Z,13.40
2019-02-26T14:11:48.116Z,13.57
2019-02-26T14:14:19.481Z,13.18
2019-02-26T14:16:51.186Z,13.93
2019-02-26T14:19:22.451Z,13.73
2019-02-26T14:21:54.041Z,13.80
2019-02-26T14:24:29.170Z,14.90
2019-02-26T14:27:00.417Z,14.57
2019-02-26T14:29:32.027Z,14.23
2019-02-26T14:32:03.325Z,15.03
2019-02-26T14:34:34.609Z,13.90
2019-02-26T14:37:05.971Z,13.93
2019-02-26T14:39:37.243Z,14.63
2019-02-26T14:42:08.578Z,14.67
2019-02-26T14:44:40.053Z,14.60
2019-02-26T14:47:11.657Z,15.07
2019-02-26T14:49:43.029Z,13.80
2019-02-26T14:52:14.719Z,14.70
2019-02-26T14:54:46.027Z,13.77
2019-02-26T14:57:18.294Z,13.95
2019-02-26T14:59:49.663Z,14.63
2019-02-26T15:02:21.207Z,14.80
2019-02-26T15:04:52.931Z,14.07
2019-02-26T15:07:24.277Z,14.00
2019-02-26T15:09:55.514Z,14.37
2019-02-26T15:12:26.727Z,14.30
2019-02-26T15:14:58.570Z,14.60
2019-02-26T15:17:30.056Z,13.33
2019-02-26T15:20:01.334Z,14.03
2019-02-26T15:22:33.158Z,14.75
2019-02-26T15:25:04.595Z,13.90
2019-02-26T15:27:38.820Z,15.00
2019-02-26T15:30:10.843Z,13.63
2019-02-26T15:32:42.813Z,13.60
2019-02-26T15:35:14.481Z,13.93
2019-02-26T15:37:46.488Z,13.83
2019-02-26T15:40:17.835Z,13.50
2019-02-26T15:42:52.279Z,14.63
2019-02-26T15:45:24.024Z,13.47
2019-02-26T15:47:55.514Z,13.80
2019-02-26T15:50:26.777Z,13.90
2019-02-26T15:52:58.162Z,13.70
2019-02-26T15:55:29.557Z,13.50
2019-02-26T15:58:03.987Z,13.47
2019-02-26T16:00:37.601Z,13.68
2019-02-26T16:03:07.382Z,13.90
2019-02-26T16:05:38.702Z,13.53
2019-02-26T16:08:10.307Z,13.00
2019-02-26T16:10:41.641Z,14.03
2019-02-26T16:13:12.869Z,13.93
2019-02-26T16:15:44.228Z,13.10
2019-02-26T16:18:16.253Z,13.03
2019-02-26T16:20:47.521Z,12.70
2019-02-26T16:23:18.897Z,13.73
2019-02-26T16:25:50.223Z,14.15
2019-02-26T16:28:21.850Z,13.03
2019-02-26T16:30:55.674Z,13.57
2019-02-26T16:33:26.859Z,14.33
2019-02-26T16:35:58.397Z,13.10
2019-02-26T16:38:30.088Z,13.43
2019-02-26T16:41:02.834Z,13.28
2019-02-26T16:43:35.084Z,13.37
2019-02-26T16:46:08.595Z,13.23
2019-02-26T16:48:40.424Z,12.63
2019-02-26T16:51:12.357Z,12.40
2019-02-26T16:53:44.405Z,12.17
2019-02-26T16:56:16.085Z,12.67
2019-02-26T16:58:47.347Z,12.43
2019-02-26T17:01:19.706Z,13.30
2019-02-26T17:03:51.918Z,13.27
2019-02-26T17:06:24.102Z,12.80
2019-02-26T17:08:55.391Z,13.47
2019-02-26T17:11:27.390Z,12.67
2019-02-26T17:13:58.956Z,12.63
2019-02-26T17:16:31.909Z,13.17
2019-02-26T17:19:03.248Z,11.93
2019-02-26T17:21:35.660Z,13.22
2019-02-26T17:24:07.277Z,13.50
2019-02-26T17:26:38.555Z,12.73
2019-02-26T17:29:10.342Z,12.95
2019-02-26T17:31:42.261Z,13.63
2019-02-26T17:34:13.826Z,12.27
2019-02-26T17:36:45.292Z,12.83
2019-02-26T17:39:17.107Z,13.30
2019-02-26T17:41:48.402Z,12.60
2019-02-26T17:44:19.794Z,13.03
2019-02-26T17:46:51.127Z,12.73
2019-02-26T17:49:22.407Z,13.10
2019-02-26T17:51:53.695Z,12.43
2019-02-26T17:54:25.237Z,12.97
2019-02-26T17:56:57.632Z,12.30
2019-02-26T17:59:29.867Z,12.73
2019-02-26T18:02:01.218Z,13.03
2019-02-26T18:04:32.963Z,12.73
2019-02-26T18:07:04.389Z,13.17
2019-02-26T18:09:36.025Z,13.33
2019-02-26T18:12:07.503Z,14.17
2019-02-26T18:14:39.401Z,15.57
2019-02-26T18:17:11.590Z,16.55
2019-02-26T18:19:43.214Z,17.30
2019-02-26T18:22:14.763Z,17.67
2019-02-26T18:24:46.064Z,17.20
2019-02-26T18:27:17.319Z,16.82
2019-02-26T18:29:48.623Z,17.63
2019-02-26T18:32:19.928Z,15.83
2019-02-26T18:34:51.186Z,17.50
2019-02-26T18:37:22.771Z,16.77
2019-02-26T18:39:55.221Z,17.40
2019-02-26T18:42:26.644Z,17.40
2019-02-26T18:44:58.197Z,18.77
2019-02-26T18:47:29.612Z,17.60
2019-02-26T18:50:00.913Z,16.67
2019-02-26T18:52:32.330Z,15.20
2019-02-26T18:55:03.684Z,14.67
2019-02-26T18:57:34.951Z,13.55
2019-02-26T19:00:07.493Z,13.27
2019-02-26T19:02:38.778Z,14.17
2019-02-26T19:05:11.553Z,16.07
2019-02-26T19:07:43.241Z,19.90
2019-02-26T19:10:19.450Z,18.43
2019-02-26T19:12:48.974Z,20.17
2019-02-26T19:15:20.723Z,19.20
2019-02-26T19:17:53.937Z,17.70
2019-02-26T19:20:27.885Z,19.23
2019-02-26T19:22:59.577Z,16.35
2019-02-26T19:25:30.841Z,16.60
2019-02-26T19:28:02.166Z,17.53
2019-02-26T19:30:36.760Z,17.13
2019-02-26T19:33:06.412Z,17.07
2019-02-26T19:35:40.428Z,15.17
2019-02-26T19:38:10.883Z,14.27
2019-02-26T19:40:43.727Z,15.43
2019-02-26T19:43:14.982Z,15.60
2019-02-26T19:45:46.271Z,15.80
2019-02-26T19:48:17.593Z,16.60
2019-02-26T19:50:49.247Z,15.73
2019-02-26T19:53:22.242Z,16.82
2019-02-26T19:55:53.665Z,16.60
2019-02-26T19:58:25.617Z,17.43
2019-02-26T20:00:57.316Z,16.70
2019-02-26T20:03:39.274Z,16.30
2019-02-26T20:06:01.826Z,17.23
2019-02-26T20:08:33.412Z,18.10
2019-02-26T20:11:05.234Z,17.27
2019-02-26T20:13:42.043Z,16.82
2019-02-26T20:16:10.115Z,17.43
2019-02-26T20:18:42.283Z,17.80
2019-02-26T20:21:14.015Z,17.33
2019-02-26T20:23:45.915Z,18.07
2019-02-26T20:26:17.445Z,17.20
2019-02-26T20:28:49.153Z,16.70
2019-02-26T20:31:21.871Z,16.33
2019-02-26T20:33:53.799Z,17.17
2019-02-26T20:36:25.295Z,17.17
2019-02-26T20:38:56.641Z,17.73
2019-02-26T20:41:27.956Z,19.05
2019-02-26T20:43:59.291Z,17.97
2019-02-26T20:46:30.538Z,18.00
2019-02-26T20:49:02.201Z,19.23
2019-02-26T20:51:33.808Z,16.73
2019-02-26T20:54:05.085Z,16.47
2019-02-26T20:56:36.751Z,18.87
2019-02-26T20:59:08.087Z,18.57
2019-02-26T21:01:40.172Z,16.47
2019-02-26T21:04:11.472Z,16.13
2019-02-26T21:10:30.285Z,16.53
2019-02-26T21:13:02.495Z,15.13
2019-02-26T21:15:34.001Z,15.67
2019-02-26T21:18:05.495Z,15.10
2019-02-26T21:20:38.845Z,16.17
2019-02-26T21:23:12.073Z,16.87
2019-02-26T21:25:44.460Z,16.70
2019-02-26T21:28:16.922Z,17.73
2019-02-26T21:37:13.263Z,17.03
2019-02-26T21:39:44.958Z,16.97
2019-02-26T21:42:16.317Z,16.50
2019-02-26T21:44:49.026Z,15.80
2019-02-26T21:47:20.352Z,15.73
2019-02-26T21:49:52.099Z,15.87
2019-02-26T21:52:23.953Z,15.77
2019-02-26T21:54:57.512Z,15.93
2019-02-26T21:57:29.395Z,16.07
2019-02-26T22:00:05.423Z,16.57
2019-02-26T22:02:36.809Z,15.60
2019-02-26T22:05:08.765Z,15.03
2019-02-26T22:07:40.442Z,16.30
2019-02-26T22:10:13.644Z,15.47
2019-02-26T22:12:45.106Z,15.83
2019-02-26T22:15:17.024Z,15.03
2019-02-26T22:17:48.353Z,16.13
2019-02-26T22:20:35.411Z,15.88
2019-02-26T22:22:52.848Z,15.33
2019-02-26T22:25:24.499Z,15.75
2019-02-26T22:27:56.343Z,15.67
2019-02-26T22:30:28.090Z,16.67
2019-02-26T22:32:59.731Z,15.47
2019-02-26T22:35:31.106Z,16.87
2019-02-26T22:38:02.801Z,17.07
2019-02-26T22:40:34.312Z,15.88
2019-02-26T22:43:05.697Z,15.90
2019-02-26T22:45:37.085Z,15.90
2019-02-26T22:48:08.974Z,16.17
2019-02-26T22:50:41.059Z,15.83
2019-02-26T22:53:12.860Z,16.27
2019-02-26T22:55:44.676Z,16.50
2019-02-26T22:58:15.983Z,16.03
2019-02-26T23:01:14.522Z,16.60
2019-02-26T23:03:46.574Z,16.73
2019-02-26T23:06:18.556Z,17.37
2019-02-26T23:08:50.079Z,17.67
2019-02-26T23:11:21.819Z,16.17
2019-02-26T23:13:53.132Z,18.53
2019-02-26T23:16:25.464Z,17.12
2019-02-26T23:18:57.533Z,17.47
2019-02-26T23:21:28.852Z,16.52
2019-02-26T23:24:00.645Z,16.37
2019-02-26T23:26:32.990Z,15.10
2019-02-26T23:29:04.281Z,16.20
2019-02-26T23:31:35.678Z,15.80
2019-02-26T23:34:08.007Z,17.60
2019-02-26T23:36:39.723Z,15.55
2019-02-26T23:39:14.663Z,17.07
2019-02-26T23:41:46.272Z,15.33
2019-02-26T23:44:18.619Z,16.57
2019-02-26T23:46:50.160Z,17.63
2019-02-26T23:49:21.888Z,16.47
2019-02-26T23:51:53.859Z,16.20
2019-02-26T23:54:26.491Z,15.47
2019-02-26T23:56:57.956Z,16.00
2019-02-26T23:59:30.096Z,15.83
